createdAt,value
2023-05-14T00:00:01.994Z,13.57
2023-05-14T00:00:43.986Z,14.40
2023-05-14T00:01:25.879Z,12.57
2023-05-14T00:02:07.907Z,11.70
2023-05-14T00:02:50.144Z,13.02
2023-05-14T00:03:32.081Z,11.52
2023-05-14T00:04:14.031Z,11.57
2023-05-14T00:04:55.957Z,11.05
2023-05-14T00:05:37.988Z,10.70
2023-05-14T00:06:22.332Z,11.43
2023-05-14T00:07:04.382Z,13.43
2023-05-14T00:07:46.137Z,12.38
2023-05-14T00:08:29.075Z,11.13
2023-05-14T00:09:11.056Z,12.70
2023-05-14T00:09:53.023Z,11.32
2023-05-14T00:10:34.911Z,12.25
2023-05-14T00:11:16.947Z,11.38
2023-05-14T00:11:58.922Z,10.27
2023-05-14T00:12:40.978Z,10.73
2023-05-14T00:13:23.005Z,11.07
2023-05-14T00:14:05.032Z,10.10
2023-05-14T00:14:47.012Z,11.48
2023-05-14T00:15:28.848Z,11.50
2023-05-14T00:16:11.214Z,11.50
2023-05-14T00:16:53.071Z,11.35
2023-05-14T00:17:37.182Z,12.27
2023-05-14T00:18:19.008Z,11.48
2023-05-14T00:19:01.022Z,10.75
2023-05-14T00:19:43.064Z,12.10
2023-05-14T00:20:25.095Z,10.65
2023-05-14T00:21:07.437Z,10.55
2023-05-14T00:21:49.423Z,10.80
2023-05-14T00:22:31.432Z,11.43
2023-05-14T00:23:13.592Z,10.88
2023-05-14T00:23:55.452Z,12.20
2023-05-14T00:24:37.593Z,11.43
2023-05-14T00:25:19.549Z,11.60
2023-05-14T00:26:01.554Z,11.27
2023-05-14T00:26:43.444Z,11.93
2023-05-14T00:27:25.238Z,11.70
2023-05-14T00:28:07.032Z,11.65
2023-05-14T00:28:49.214Z,12.73
2023-05-14T00:29:31.038Z,13.10
2023-05-14T00:30:13.104Z,14.77
2023-05-14T00:30:56.141Z,12.20
2023-05-14T00:31:38.247Z,13.15
2023-05-14T00:32:20.121Z,12.00
2023-05-14T00:33:04.131Z,12.70
2023-05-14T00:33:46.237Z,13.77
2023-05-14T00:34:28.047Z,13.43
2023-05-14T00:35:10.061Z,11.77
2023-05-14T00:35:52.076Z,12.57
2023-05-14T00:36:33.872Z,12.60
2023-05-14T00:37:15.746Z,13.23
2023-05-14T00:37:58.101Z,12.95
2023-05-14T00:38:42.052Z,12.23
2023-05-14T00:39:23.933Z,12.15
2023-05-14T00:40:07.246Z,11.60
2023-05-14T00:40:53.976Z,13.05
2023-05-14T00:41:38.146Z,12.27
2023-05-14T00:42:22.237Z,11.70
2023-05-14T00:43:04.103Z,12.90
2023-05-14T00:43:46.064Z,11.88
2023-05-14T00:44:30.206Z,12.77
2023-05-14T00:45:12.259Z,12.00
2023-05-14T00:45:55.589Z,12.98
2023-05-14T00:46:37.637Z,17.20
2023-05-14T00:47:19.923Z,14.68
2023-05-14T00:48:02.081Z,11.88
2023-05-14T00:48:47.273Z,11.90
2023-05-14T00:49:29.586Z,11.43
2023-05-14T00:50:12.283Z,15.23
2023-05-14T00:50:54.330Z,13.90
2023-05-14T00:51:36.393Z,12.52
2023-05-14T00:52:18.709Z,13.02
2023-05-14T00:53:03.187Z,13.00
2023-05-14T00:53:46.596Z,13.55
2023-05-14T00:54:29.669Z,12.02
2023-05-14T00:55:16.600Z,10.88
2023-05-14T00:55:59.083Z,12.40
2023-05-14T00:56:41.266Z,11.80
2023-05-14T00:57:23.315Z,13.40
2023-05-14T00:58:12.306Z,12.45
2023-05-14T00:58:54.186Z,12.52
2023-05-14T00:59:36.341Z,12.77
2023-05-14T01:00:18.346Z,12.73
2023-05-14T01:01:00.297Z,11.70
2023-05-14T01:01:42.765Z,11.52
2023-05-14T01:02:24.796Z,12.10
2023-05-14T01:03:08.134Z,13.40
2023-05-14T01:03:50.351Z,12.57
2023-05-14T01:04:32.437Z,13.15
2023-05-14T01:05:14.424Z,13.70
2023-05-14T01:06:25.540Z,13.65
2023-05-14T01:07:19.194Z,13.50
2023-05-14T01:08:40.600Z,12.68
2023-05-14T01:09:52.498Z,12.75
2023-05-14T01:10:58.399Z,12.20
2023-05-14T01:12:10.734Z,13.23
2023-05-14T01:13:16.527Z,13.52
2023-05-14T01:14:10.376Z,14.65
2023-05-14T01:15:11.828Z,13.52
2023-05-14T01:15:59.617Z,13.60
2023-05-14T01:16:42.427Z,13.80
2023-05-14T01:17:29.373Z,12.40
2023-05-14T01:18:13.669Z,12.63
2023-05-14T01:18:57.869Z,12.45
2023-05-14T01:19:42.778Z,13.25
2023-05-14T01:20:27.398Z,13.82
2023-05-14T01:21:34.820Z,12.82
2023-05-14T01:22:16.855Z,13.45
2023-05-14T01:22:58.854Z,13.35
2023-05-14T01:23:40.629Z,13.93
2023-05-14T01:24:22.425Z,13.88
2023-05-14T01:25:05.967Z,13.55
2023-05-14T01:25:48.096Z,13.25
2023-05-14T01:26:32.970Z,13.13
2023-05-14T01:27:24.992Z,13.35
2023-05-14T01:28:20.096Z,13.40
2023-05-14T01:29:20.894Z,13.00
2023-05-14T01:30:24.528Z,13.30
2023-05-14T01:31:18.598Z,13.52
2023-05-14T01:32:03.506Z,14.32
2023-05-14T01:32:48.858Z,13.77
2023-05-14T01:33:33.643Z,12.75
2023-05-14T01:34:18.577Z,13.40
2023-05-14T01:35:02.018Z,13.32
2023-05-14T01:35:47.680Z,15.25
2023-05-14T01:36:30.986Z,12.80
2023-05-14T01:37:13.730Z,12.95
2023-05-14T01:38:03.570Z,13.43
2023-05-14T01:38:47.532Z,12.85
2023-05-14T01:39:32.014Z,13.10
2023-05-14T01:40:14.616Z,12.23
2023-05-14T01:40:57.606Z,12.10
2023-05-14T01:41:40.037Z,12.50
2023-05-14T01:42:24.511Z,13.00
2023-05-14T01:43:06.701Z,13.07
2023-05-14T01:43:49.434Z,13.88
2023-05-14T01:44:31.572Z,14.20
2023-05-14T01:45:13.638Z,12.05
2023-05-14T01:45:55.659Z,11.10
2023-05-14T01:46:38.274Z,11.90
2023-05-14T01:47:20.126Z,14.43
2023-05-14T01:48:02.172Z,12.63
2023-05-14T01:48:44.108Z,12.63
2023-05-14T01:49:25.863Z,12.40
2023-05-14T01:50:08.127Z,12.45
2023-05-14T01:50:50.707Z,12.38
2023-05-14T01:51:32.726Z,12.18
2023-05-14T01:52:14.566Z,12.73
2023-05-14T01:52:57.008Z,11.95
2023-05-14T01:53:39.153Z,11.77
2023-05-14T01:54:20.901Z,12.90
2023-05-14T01:55:02.720Z,12.15
2023-05-14T01:55:44.589Z,12.50
2023-05-14T01:56:27.040Z,12.25
2023-05-14T01:57:08.885Z,12.25
2023-05-14T01:57:51.733Z,12.32
2023-05-14T01:58:33.627Z,12.85
2023-05-14T01:59:16.018Z,12.70
2023-05-14T01:59:58.094Z,12.20
2023-05-14T02:00:39.981Z,11.75
2023-05-14T02:01:24.685Z,12.60
2023-05-14T02:02:06.728Z,12.20
2023-05-14T02:02:48.735Z,12.38
2023-05-14T02:03:31.083Z,12.13
2023-05-14T02:04:13.199Z,11.90
2023-05-14T02:04:55.260Z,11.40
2023-05-14T02:05:37.207Z,11.60
2023-05-14T02:06:19.293Z,12.10
2023-05-14T02:07:01.077Z,11.90
2023-05-14T02:07:43.135Z,11.73
2023-05-14T02:08:25.291Z,12.07
2023-05-14T02:09:07.470Z,12.40
2023-05-14T02:09:49.249Z,12.40
2023-05-14T02:10:33.745Z,12.10
2023-05-14T02:11:15.873Z,12.23
2023-05-14T02:11:58.078Z,13.05
2023-05-14T02:12:39.975Z,11.82
2023-05-14T02:13:24.125Z,11.55
2023-05-14T02:14:06.200Z,11.32
2023-05-14T02:14:48.428Z,11.05
2023-05-14T02:15:30.210Z,11.27
2023-05-14T02:16:14.626Z,10.70
2023-05-14T02:16:59.185Z,10.95
2023-05-14T02:17:41.303Z,11.73
2023-05-14T02:18:23.642Z,11.40
2023-05-14T02:19:05.620Z,11.18
2023-05-14T02:19:48.128Z,10.80
2023-05-14T02:20:29.933Z,11.23
2023-05-14T02:21:11.810Z,13.45
2023-05-14T02:21:53.700Z,10.80
2023-05-14T02:22:36.026Z,11.23
2023-05-14T02:23:18.723Z,11.30
2023-05-14T02:24:01.385Z,11.50
2023-05-14T02:24:43.726Z,11.35
2023-05-14T02:25:25.813Z,10.75
2023-05-14T02:26:11.666Z,10.25
2023-05-14T02:26:53.919Z,11.00
2023-05-14T02:27:35.924Z,11.95
2023-05-14T02:28:18.202Z,11.75
2023-05-14T02:28:59.953Z,11.90
2023-05-14T02:29:43.971Z,11.48
2023-05-14T02:30:26.053Z,11.88
2023-05-14T02:31:08.226Z,12.10
2023-05-14T02:31:50.170Z,11.77
2023-05-14T02:32:32.217Z,13.13
2023-05-14T02:33:14.403Z,11.15
2023-05-14T02:33:56.405Z,12.00
2023-05-14T02:34:38.774Z,11.63
2023-05-14T02:35:20.531Z,10.88
2023-05-14T02:36:02.297Z,10.73
2023-05-14T02:36:44.176Z,12.27
2023-05-14T02:37:25.967Z,12.88
2023-05-14T02:38:08.270Z,11.80
2023-05-14T02:38:50.034Z,12.23
2023-05-14T02:39:34.213Z,10.60
2023-05-14T02:40:16.419Z,10.45
2023-05-14T02:40:58.757Z,11.40
2023-05-14T02:41:40.848Z,10.70
2023-05-14T02:42:24.895Z,11.73
2023-05-14T02:43:09.045Z,11.30
2023-05-14T02:43:50.901Z,11.15
2023-05-14T02:44:33.180Z,12.77
2023-05-14T02:45:14.967Z,11.80
2023-05-14T02:45:58.816Z,12.38
2023-05-14T02:46:40.779Z,12.52
2023-05-14T02:47:23.301Z,13.02
2023-05-14T02:48:05.317Z,13.10
2023-05-14T02:48:49.215Z,12.18
2023-05-14T02:49:31.053Z,11.65
2023-05-14T02:50:13.356Z,11.10
2023-05-14T02:50:55.144Z,11.73
2023-05-14T02:51:39.297Z,11.40
2023-05-14T02:52:21.092Z,12.70
2023-05-14T02:53:03.187Z,11.85
2023-05-14T02:53:44.947Z,11.63
2023-05-14T02:54:29.485Z,12.35
2023-05-14T02:55:14.256Z,11.60
2023-05-14T02:55:56.249Z,11.63
2023-05-14T02:56:39.008Z,11.60
2023-05-14T02:57:21.342Z,12.30
2023-05-14T02:58:03.699Z,12.40
2023-05-14T02:58:45.438Z,11.90
2023-05-14T02:59:28.328Z,12.45
2023-05-14T03:00:13.783Z,11.93
2023-05-14T03:00:56.136Z,12.10
2023-05-14T03:01:38.724Z,11.70
2023-05-14T03:02:21.149Z,12.52
2023-05-14T03:03:03.900Z,14.60
2023-05-14T03:03:46.128Z,12.75
2023-05-14T03:04:28.748Z,11.55
2023-05-14T03:05:10.522Z,11.85
2023-05-14T03:05:52.449Z,12.10
2023-05-14T03:06:34.393Z,11.20
2023-05-14T03:07:16.217Z,11.77
2023-05-14T03:07:58.669Z,11.52
2023-05-14T03:08:40.485Z,11.27
2023-05-14T03:09:24.569Z,11.90
2023-05-14T03:10:07.133Z,11.90
2023-05-14T03:10:49.102Z,13.98
2023-05-14T03:11:31.052Z,12.25
2023-05-14T03:12:14.408Z,12.02
2023-05-14T03:12:56.412Z,13.00
2023-05-14T03:13:38.453Z,12.10
2023-05-14T03:14:20.275Z,11.45
2023-05-14T03:15:02.000Z,12.17
2023-05-14T03:15:44.635Z,11.48
2023-05-14T03:16:29.117Z,13.10
2023-05-14T03:17:11.481Z,11.77
2023-05-14T03:17:54.125Z,11.50
2023-05-14T03:18:36.741Z,12.40
2023-05-14T03:19:19.082Z,12.73
2023-05-14T03:20:00.851Z,13.25
2023-05-14T03:20:42.699Z,13.73
2023-05-14T03:21:27.121Z,14.20
2023-05-14T03:22:09.113Z,13.85
2023-05-14T03:22:51.073Z,13.05
2023-05-14T03:23:37.137Z,13.40
2023-05-14T03:24:19.117Z,13.98
2023-05-14T03:25:00.856Z,13.57
2023-05-14T03:25:42.577Z,12.57
2023-05-14T03:26:24.526Z,13.93
2023-05-14T03:27:06.689Z,13.85
2023-05-14T03:27:49.030Z,13.52
2023-05-14T03:28:31.250Z,13.70
2023-05-14T03:29:13.534Z,13.07
2023-05-14T03:29:55.392Z,12.73
2023-05-14T03:30:37.178Z,13.52
2023-05-14T03:31:19.268Z,13.38
2023-05-14T03:32:01.261Z,13.40
2023-05-14T03:32:43.498Z,13.85
2023-05-14T03:33:25.597Z,12.80
2023-05-14T03:34:07.476Z,12.85
2023-05-14T03:34:49.313Z,13.23
2023-05-14T03:35:31.506Z,12.75
2023-05-14T03:36:14.101Z,12.90
2023-05-14T03:36:55.825Z,13.20
2023-05-14T03:37:37.596Z,13.38
2023-05-14T03:38:19.536Z,12.27
2023-05-14T03:39:01.322Z,12.60
2023-05-14T03:39:43.615Z,13.43
2023-05-14T03:40:26.292Z,13.07
2023-05-14T03:41:08.615Z,12.35
2023-05-14T03:41:50.617Z,12.70
2023-05-14T03:42:34.703Z,13.23
2023-05-14T03:43:16.490Z,13.05
2023-05-14T03:43:58.595Z,11.70
2023-05-14T03:44:40.751Z,13.20
2023-05-14T03:45:22.563Z,12.98
2023-05-14T03:46:04.624Z,13.32
2023-05-14T03:46:46.649Z,13.52
2023-05-14T03:47:29.142Z,12.70
2023-05-14T03:48:11.308Z,13.10
2023-05-14T03:48:53.202Z,12.60
2023-05-14T03:49:35.214Z,12.32
2023-05-14T03:50:19.155Z,11.90
2023-05-14T03:51:00.984Z,12.52
2023-05-14T03:51:42.788Z,12.23
2023-05-14T03:52:24.762Z,11.95
2023-05-14T03:53:06.819Z,12.88
2023-05-14T03:53:48.970Z,12.80
2023-05-14T03:54:30.744Z,12.50
2023-05-14T03:55:12.593Z,12.32
2023-05-14T03:55:54.399Z,12.98
2023-05-14T03:56:36.402Z,12.80
2023-05-14T03:57:18.570Z,11.90
2023-05-14T03:58:00.594Z,12.82
2023-05-14T03:58:42.746Z,12.73
2023-05-14T03:59:24.708Z,11.82
2023-05-14T04:00:09.337Z,13.40
2023-05-14T04:00:51.393Z,12.73
2023-05-14T04:01:33.629Z,12.20
2023-05-14T04:02:15.656Z,12.20
2023-05-14T04:02:59.937Z,12.68
2023-05-14T04:03:44.564Z,12.27
2023-05-14T04:04:26.817Z,11.63
2023-05-14T04:05:09.228Z,12.10
2023-05-14T04:05:51.494Z,12.70
2023-05-14T04:06:33.915Z,12.48
2023-05-14T04:07:15.737Z,11.93
2023-05-14T04:07:58.236Z,12.63
2023-05-14T04:08:39.995Z,12.70
2023-05-14T04:09:21.879Z,12.80
2023-05-14T04:10:04.909Z,13.23
2023-05-14T04:10:46.888Z,13.63
2023-05-14T04:11:29.178Z,12.70
2023-05-14T04:12:10.990Z,12.48
2023-05-14T04:12:52.766Z,13.80
2023-05-14T04:13:34.682Z,13.30
2023-05-14T04:14:16.891Z,12.23
2023-05-14T04:14:59.257Z,13.52
2023-05-14T04:15:41.385Z,13.75
2023-05-14T04:16:23.796Z,13.25
2023-05-14T04:17:05.693Z,12.60
2023-05-14T04:17:49.713Z,12.88
2023-05-14T04:18:35.042Z,13.35
2023-05-14T04:19:17.118Z,13.43
2023-05-14T04:19:59.316Z,12.85
2023-05-14T04:20:41.165Z,13.00
2023-05-14T04:21:22.940Z,13.77
2023-05-14T04:22:07.413Z,14.82
2023-05-14T04:22:49.428Z,13.73
2023-05-14T04:23:32.010Z,13.05
2023-05-14T04:24:14.302Z,13.27
2023-05-14T04:24:56.065Z,16.30
2023-05-14T04:25:37.852Z,15.30
2023-05-14T04:26:19.774Z,13.18
2023-05-14T04:27:01.631Z,13.85
2023-05-14T04:27:43.819Z,12.93
2023-05-14T04:28:25.704Z,12.50
2023-05-14T04:29:09.594Z,12.80
2023-05-14T04:29:51.375Z,12.30
2023-05-14T04:30:35.619Z,13.40
2023-05-14T04:31:19.797Z,12.88
2023-05-14T04:32:01.747Z,15.35
2023-05-14T04:32:44.407Z,14.25
2023-05-14T04:33:26.238Z,12.35
2023-05-14T04:34:08.014Z,12.98
2023-05-14T04:34:49.997Z,14.10
2023-05-14T04:35:32.056Z,12.20
2023-05-14T04:36:14.486Z,12.55
2023-05-14T04:36:56.512Z,11.93
2023-05-14T04:37:38.791Z,11.85
2023-05-14T04:38:20.654Z,12.32
2023-05-14T04:39:04.916Z,12.52
2023-05-14T04:39:47.031Z,11.35
2023-05-14T04:40:31.130Z,12.18
2023-05-14T04:41:12.971Z,12.10
2023-05-14T04:41:54.840Z,12.52
2023-05-14T04:42:37.011Z,11.35
2023-05-14T04:43:21.304Z,12.23
2023-05-14T04:44:03.945Z,13.93
2023-05-14T04:44:46.150Z,13.10
2023-05-14T04:45:28.021Z,11.85
2023-05-14T04:46:09.994Z,11.20
2023-05-14T04:46:52.028Z,12.90
2023-05-14T04:47:34.581Z,12.43
2023-05-14T04:48:16.649Z,12.27
2023-05-14T04:48:58.883Z,12.07
2023-05-14T04:49:40.806Z,12.60
2023-05-14T04:50:22.832Z,12.38
2023-05-14T04:51:06.921Z,12.70
2023-05-14T04:51:49.422Z,13.48
2023-05-14T04:52:31.291Z,12.55
2023-05-14T04:53:14.889Z,13.50
2023-05-14T04:53:56.701Z,13.25
2023-05-14T04:54:38.554Z,13.70
2023-05-14T04:55:20.601Z,13.25
2023-05-14T04:56:04.997Z,13.20
2023-05-14T04:56:50.096Z,13.20
2023-05-14T04:57:32.168Z,13.43
2023-05-14T04:58:16.298Z,13.40
2023-05-14T04:58:58.087Z,13.73
2023-05-14T04:59:40.042Z,14.30
2023-05-14T05:00:23.232Z,12.88
2023-05-14T05:01:06.154Z,12.98
2023-05-14T05:01:48.054Z,14.48
2023-05-14T05:02:30.061Z,13.52
2023-05-14T05:03:14.995Z,13.32
2023-05-14T05:03:57.846Z,14.98
2023-05-14T05:04:39.761Z,13.13
2023-05-14T05:05:22.207Z,13.45
2023-05-14T05:06:04.603Z,13.75
2023-05-14T05:06:46.499Z,13.55
2023-05-14T05:07:28.851Z,13.27
2023-05-14T05:08:11.606Z,13.55
2023-05-14T05:08:55.720Z,14.00
2023-05-14T05:09:39.826Z,16.17
2023-05-14T05:10:21.980Z,15.65
2023-05-14T05:11:04.924Z,13.68
2023-05-14T05:11:46.837Z,13.90
2023-05-14T05:12:31.829Z,12.95
2023-05-14T05:13:14.255Z,14.68
2023-05-14T05:13:56.056Z,13.25
2023-05-14T05:14:37.872Z,13.20
2023-05-14T05:15:19.856Z,13.30
2023-05-14T05:16:03.827Z,13.10
2023-05-14T05:16:46.196Z,12.77
2023-05-14T05:17:30.114Z,12.70
2023-05-14T05:18:12.003Z,12.93
2023-05-14T05:18:53.832Z,12.63
2023-05-14T05:19:43.215Z,12.93
2023-05-14T05:20:28.167Z,13.77
2023-05-14T05:21:10.154Z,13.48
2023-05-14T05:21:52.097Z,14.18
2023-05-14T05:22:34.060Z,15.18
2023-05-14T05:23:16.087Z,15.55
2023-05-14T05:23:58.069Z,15.95
2023-05-14T05:24:39.857Z,15.68
2023-05-14T05:25:24.108Z,16.17
2023-05-14T05:26:05.889Z,14.77
2023-05-14T05:26:48.200Z,15.40
2023-05-14T05:27:30.263Z,16.52
2023-05-14T05:28:12.143Z,15.40
2023-05-14T05:28:54.155Z,15.00
2023-05-14T05:29:36.403Z,14.20
2023-05-14T05:30:18.692Z,15.27
2023-05-14T05:31:00.768Z,15.23
2023-05-14T05:31:43.055Z,15.10
2023-05-14T05:32:25.420Z,15.40
2023-05-14T05:33:08.120Z,14.85
2023-05-14T05:33:50.198Z,15.82
2023-05-14T05:34:32.092Z,16.17
2023-05-14T05:35:13.859Z,15.18
2023-05-14T05:35:55.730Z,15.40
2023-05-14T05:36:37.495Z,16.92
2023-05-14T05:37:19.287Z,16.98
2023-05-14T05:38:01.957Z,16.80
2023-05-14T05:38:43.865Z,17.25
2023-05-14T05:39:25.890Z,16.50
2023-05-14T05:40:09.188Z,17.42
2023-05-14T05:40:51.289Z,17.80
2023-05-14T05:41:33.170Z,17.23
2023-05-14T05:42:15.373Z,18.25
2023-05-14T05:42:57.092Z,18.33
2023-05-14T05:43:38.943Z,18.10
2023-05-14T05:44:20.863Z,17.90
2023-05-14T05:45:02.949Z,18.25
2023-05-14T05:45:46.054Z,17.58
2023-05-14T05:46:27.977Z,17.38
2023-05-14T05:47:09.898Z,18.70
2023-05-14T05:47:53.872Z,18.02
2023-05-14T05:48:35.894Z,17.60
2023-05-14T05:49:18.032Z,17.17
2023-05-14T05:50:00.369Z,17.38
2023-05-14T05:50:44.296Z,17.20
2023-05-14T05:51:26.286Z,16.90
2023-05-14T05:52:08.092Z,16.83
2023-05-14T05:52:49.902Z,15.98
2023-05-14T05:53:31.663Z,16.15
2023-05-14T05:54:15.919Z,15.55
2023-05-14T05:54:58.096Z,16.05
2023-05-14T05:55:41.015Z,17.15
2023-05-14T05:56:23.192Z,16.75
2023-05-14T05:57:05.347Z,15.27
2023-05-14T05:57:47.126Z,15.30
2023-05-14T05:58:29.046Z,17.17
2023-05-14T05:59:10.953Z,16.70
2023-05-14T05:59:53.201Z,17.10
2023-05-14T06:00:34.993Z,16.10
2023-05-14T06:01:19.124Z,17.70
2023-05-14T06:02:01.071Z,17.70
2023-05-14T06:02:46.123Z,17.10
2023-05-14T06:03:28.372Z,18.08
2023-05-14T06:04:10.407Z,17.50
2023-05-14T06:04:53.263Z,17.52
2023-05-14T06:05:35.709Z,17.23
2023-05-14T06:06:17.585Z,16.88
2023-05-14T06:06:59.324Z,16.98
2023-05-14T06:07:41.434Z,17.77
2023-05-14T06:08:23.624Z,17.77
2023-05-14T06:09:09.457Z,17.02
2023-05-14T06:09:51.457Z,18.38
2023-05-14T06:10:34.476Z,17.10
2023-05-14T06:11:19.394Z,18.60
2023-05-14T06:12:01.265Z,18.45
2023-05-14T06:12:43.205Z,19.10
2023-05-14T06:13:25.081Z,19.90
2023-05-14T06:14:06.920Z,18.95
2023-05-14T06:14:50.833Z,18.70
2023-05-14T06:15:32.665Z,18.13
2023-05-14T06:16:14.519Z,18.23
2023-05-14T06:16:56.600Z,17.83
2023-05-14T06:17:39.204Z,17.05
2023-05-14T06:18:21.318Z,18.80
2023-05-14T06:19:03.414Z,18.13
2023-05-14T06:19:45.337Z,19.33
2023-05-14T06:20:27.163Z,18.45
2023-05-14T06:21:11.016Z,17.73
2023-05-14T06:21:52.832Z,19.10
2023-05-14T06:22:35.171Z,18.60
2023-05-14T06:23:19.048Z,18.60
2023-05-14T06:24:01.055Z,19.25
2023-05-14T06:24:43.229Z,19.52
2023-05-14T06:25:25.108Z,18.67
2023-05-14T06:26:06.912Z,17.38
2023-05-14T06:26:49.424Z,17.00
2023-05-14T06:27:31.500Z,17.88
2023-05-14T06:28:13.361Z,17.40
2023-05-14T06:28:55.244Z,19.67
2023-05-14T06:29:37.443Z,20.10
2023-05-14T06:30:19.349Z,18.67
2023-05-14T06:31:01.235Z,19.73
2023-05-14T06:31:43.479Z,21.45
2023-05-14T06:32:25.550Z,21.35
2023-05-14T06:33:07.366Z,20.85
2023-05-14T06:33:49.229Z,20.52
2023-05-14T06:34:31.605Z,19.15
2023-05-14T06:35:13.696Z,20.40
2023-05-14T06:35:55.956Z,19.02
2023-05-14T06:36:37.714Z,19.23
2023-05-14T06:37:19.506Z,19.92
2023-05-14T06:38:01.258Z,20.40
2023-05-14T06:38:43.412Z,21.23
2023-05-14T06:39:25.610Z,22.13
2023-05-14T06:40:07.951Z,22.10
2023-05-14T06:40:49.795Z,22.73
2023-05-14T06:41:31.889Z,22.83
2023-05-14T06:42:13.901Z,22.60
2023-05-14T06:42:55.741Z,23.70
2023-05-14T06:43:37.564Z,23.35
2023-05-14T06:44:19.726Z,24.17
2023-05-14T06:45:01.658Z,24.70
2023-05-14T06:45:43.772Z,24.70
2023-05-14T06:46:25.714Z,24.55
2023-05-14T06:47:08.534Z,24.33
2023-05-14T06:47:50.342Z,23.67
2023-05-14T06:48:34.326Z,23.55
2023-05-14T06:49:16.277Z,23.48
2023-05-14T06:49:58.829Z,22.23
2023-05-14T06:50:40.797Z,22.17
2023-05-14T06:51:22.659Z,22.27
2023-05-14T06:52:04.741Z,21.15
2023-05-14T06:52:46.752Z,22.17
2023-05-14T06:53:28.749Z,22.58
2023-05-14T06:54:10.664Z,23.52
2023-05-14T06:54:52.524Z,22.63
2023-05-14T06:55:34.303Z,22.67
2023-05-14T06:56:16.334Z,22.67
2023-05-14T06:56:58.477Z,22.90
2023-05-14T06:57:40.852Z,22.40
2023-05-14T06:58:22.838Z,23.90
2023-05-14T06:59:04.658Z,23.08
2023-05-14T06:59:46.844Z,23.80
2023-05-14T07:00:28.894Z,24.13
2023-05-14T07:01:11.151Z,24.60
2023-05-14T07:01:53.281Z,23.73
2023-05-14T07:02:35.494Z,24.65
2023-05-14T07:03:17.378Z,24.73
2023-05-14T07:04:01.461Z,24.60
2023-05-14T07:04:43.495Z,24.73
2023-05-14T07:05:26.272Z,25.05
2023-05-14T07:06:08.287Z,23.52
2023-05-14T07:06:52.392Z,23.35
2023-05-14T07:07:36.570Z,23.70
2023-05-14T07:08:18.436Z,23.80
2023-05-14T07:09:01.362Z,23.45
2023-05-14T07:09:43.413Z,24.30
2023-05-14T07:10:25.887Z,23.85
2023-05-14T07:11:07.818Z,24.02
2023-05-14T07:11:49.611Z,23.67
2023-05-14T07:12:31.430Z,24.95
2023-05-14T07:13:13.492Z,25.20
2023-05-14T07:13:55.298Z,24.35
2023-05-14T07:14:37.802Z,24.05
2023-05-14T07:15:19.600Z,24.88
2023-05-14T07:16:01.435Z,24.42
2023-05-14T07:16:43.557Z,23.52
2023-05-14T07:17:25.513Z,24.15
2023-05-14T07:18:09.403Z,23.92
2023-05-14T07:18:51.355Z,24.45
2023-05-14T07:19:33.140Z,23.95
2023-05-14T07:20:14.934Z,25.70
2023-05-14T07:20:56.924Z,24.70
2023-05-14T07:21:41.436Z,24.67
2023-05-14T07:22:23.522Z,24.50
2023-05-14T07:23:05.415Z,24.05
2023-05-14T07:23:47.186Z,23.13
2023-05-14T07:24:29.077Z,24.40
2023-05-14T07:25:11.043Z,25.02
2023-05-14T07:25:52.818Z,24.83
2023-05-14T07:26:34.837Z,24.13
2023-05-14T07:27:19.601Z,23.45
2023-05-14T07:28:01.469Z,24.10
2023-05-14T07:28:43.495Z,24.67
2023-05-14T07:29:25.541Z,23.98
2023-05-14T07:30:08.476Z,23.50
2023-05-14T07:30:50.361Z,23.85
2023-05-14T07:31:34.545Z,24.20
2023-05-14T07:32:16.477Z,23.00
2023-05-14T07:32:58.598Z,23.92
2023-05-14T07:33:40.464Z,25.10
2023-05-14T07:34:24.957Z,24.25
2023-05-14T07:35:07.355Z,22.95
2023-05-14T07:35:51.571Z,23.25
2023-05-14T07:36:33.558Z,22.77
2023-05-14T07:37:15.519Z,21.35
2023-05-14T07:37:59.686Z,20.70
2023-05-14T07:38:41.690Z,20.02
2023-05-14T07:39:23.538Z,19.50
2023-05-14T07:40:05.750Z,21.05
2023-05-14T07:40:47.508Z,19.70
2023-05-14T07:41:31.360Z,18.88
2023-05-14T07:42:19.516Z,19.17
2023-05-14T07:43:10.785Z,18.00
2023-05-14T07:43:52.520Z,17.60
2023-05-14T07:44:36.880Z,15.98
2023-05-14T07:45:18.931Z,15.77
2023-05-14T07:46:00.855Z,17.13
2023-05-14T07:46:42.969Z,18.70
2023-05-14T07:47:24.832Z,15.40
2023-05-14T07:48:06.831Z,14.10
2023-05-14T07:48:48.940Z,13.93
2023-05-14T07:49:30.928Z,14.75
2023-05-14T07:50:12.808Z,14.82
2023-05-14T07:50:54.736Z,15.10
2023-05-14T07:51:36.535Z,15.00
2023-05-14T07:52:18.393Z,14.50
2023-05-14T07:53:00.146Z,14.95
2023-05-14T07:53:42.073Z,15.50
2023-05-14T07:54:24.072Z,14.73
2023-05-14T07:55:06.923Z,15.38
2023-05-14T07:55:51.677Z,14.43
2023-05-14T07:56:33.664Z,15.48
2023-05-14T07:57:15.597Z,14.93
2023-05-14T07:57:59.495Z,14.50
2023-05-14T07:58:41.458Z,14.68
2023-05-14T07:59:23.249Z,14.38
2023-05-14T08:00:08.126Z,14.60
2023-05-14T08:00:49.934Z,16.35
2023-05-14T08:01:31.685Z,15.90
2023-05-14T08:02:15.925Z,15.03
2023-05-14T08:02:58.066Z,14.65
2023-05-14T08:03:40.039Z,14.75
2023-05-14T08:04:23.341Z,15.02
2023-05-14T08:05:05.672Z,14.63
2023-05-14T08:05:47.973Z,15.20
2023-05-14T08:06:29.845Z,19.40
2023-05-14T08:07:12.007Z,14.95
2023-05-14T08:07:54.199Z,14.40
2023-05-14T08:08:36.306Z,13.60
2023-05-14T08:09:18.051Z,13.75
2023-05-14T08:09:59.795Z,13.82
2023-05-14T08:10:41.579Z,14.00
2023-05-14T08:11:23.752Z,14.73
2023-05-14T08:12:06.391Z,13.07
2023-05-14T08:12:48.195Z,12.13
2023-05-14T08:13:29.969Z,12.95
2023-05-14T08:14:11.887Z,13.45
2023-05-14T08:14:53.661Z,13.65
2023-05-14T08:15:37.583Z,14.30
2023-05-14T08:16:19.631Z,14.13
2023-05-14T08:17:01.663Z,14.25
2023-05-14T08:17:43.851Z,14.68
2023-05-14T08:18:25.765Z,13.48
2023-05-14T08:19:07.751Z,13.95
2023-05-14T08:19:49.648Z,12.85
2023-05-14T08:20:31.763Z,13.10
2023-05-14T08:21:13.553Z,13.07
2023-05-14T08:21:55.313Z,12.60
2023-05-14T08:22:37.213Z,14.20
2023-05-14T08:23:18.982Z,13.25
2023-05-14T08:24:00.774Z,12.48
2023-05-14T08:24:43.160Z,12.05
2023-05-14T08:25:25.146Z,11.50
2023-05-14T08:26:07.267Z,12.32
2023-05-14T08:26:49.057Z,12.82
2023-05-14T08:27:30.895Z,11.60
2023-05-14T08:28:12.772Z,12.05
2023-05-14T08:28:54.874Z,10.35
2023-05-14T08:29:36.994Z,11.10
2023-05-14T08:30:18.753Z,11.73
2023-05-14T08:31:02.916Z,11.77
2023-05-14T08:31:44.725Z,11.98
2023-05-14T08:32:27.126Z,12.80
2023-05-14T08:33:09.030Z,13.00
2023-05-14T08:33:50.925Z,12.18
2023-05-14T08:34:32.825Z,12.32
2023-05-14T08:35:14.999Z,12.45
2023-05-14T08:35:58.231Z,12.13
2023-05-14T08:36:40.157Z,11.40
2023-05-14T08:37:21.931Z,11.88
2023-05-14T08:38:03.812Z,11.70
2023-05-14T08:38:47.895Z,12.55
2023-05-14T08:39:29.756Z,11.95
2023-05-14T08:40:12.363Z,12.40
2023-05-14T08:41:01.123Z,12.13
2023-05-14T08:41:46.138Z,13.10
2023-05-14T08:42:29.152Z,11.98
2023-05-14T08:43:12.298Z,12.20
2023-05-14T08:44:05.530Z,11.48
2023-05-14T08:44:58.352Z,11.00
2023-05-14T08:45:40.915Z,10.55
2023-05-14T08:46:24.773Z,10.23
2023-05-14T08:47:07.409Z,11.60
2023-05-14T08:47:50.975Z,10.80
2023-05-14T08:48:34.934Z,9.85
2023-05-14T08:49:35.141Z,9.18
2023-05-14T08:50:18.377Z,9.25
2023-05-14T08:51:01.846Z,9.85
2023-05-14T08:51:48.401Z,11.00
2023-05-14T08:52:31.374Z,12.98
2023-05-14T08:53:15.972Z,12.50
2023-05-14T08:54:00.862Z,9.82
2023-05-14T08:54:42.948Z,9.98
2023-05-14T08:55:26.192Z,10.18
2023-05-14T08:56:09.433Z,9.48
2023-05-14T08:56:52.525Z,10.40
2023-05-14T08:57:35.110Z,9.52
2023-05-14T08:58:17.208Z,9.35
2023-05-14T08:58:59.353Z,11.68
2023-05-14T08:59:41.403Z,11.50
2023-05-14T09:00:23.714Z,8.90
2023-05-14T09:01:05.986Z,9.55
2023-05-14T09:01:48.857Z,7.93
2023-05-14T09:02:31.502Z,7.80
2023-05-14T09:03:14.139Z,7.93
2023-05-14T09:03:56.566Z,8.57
2023-05-14T09:04:39.311Z,8.00
2023-05-14T09:05:22.137Z,7.70
2023-05-14T09:06:05.932Z,9.10
2023-05-14T09:06:50.321Z,9.73
2023-05-14T09:07:32.370Z,9.85
2023-05-14T09:08:14.256Z,8.88
2023-05-14T09:08:56.494Z,8.77
2023-05-14T09:09:40.894Z,8.80
2023-05-14T09:10:23.297Z,8.07
2023-05-14T09:11:05.519Z,9.00
2023-05-14T09:11:51.381Z,8.32
2023-05-14T09:12:33.350Z,8.27
2023-05-14T09:13:15.583Z,8.32
2023-05-14T09:13:57.550Z,8.88